Roosevelt Roads, PR

1:48 AM AST on August 18, 2017 (GMT -0400)
Roosevelt Roads Ns | | Change Station
Active Advisory: Coastal Hazard Statement Active Notice: Coastal Hazard Statement

Elev 36 ft 18.25 °N, 65.64 °W | Updated 55 minutes ago

Scattered Clouds
Scattered Clouds
82 °F
Feels Like 90 °F
N
7
Wind Variable Wind from NE

Today
High -- | Low -- °F
--% Chance of Precip.
Yesterday
High -- | Low -- °F
Precip. -- in
Pressure 29.99 in
Visibility 10.0 miles
Clouds Scattered Clouds 4400 ft
Heat Index 90 °F
Dew Point 77 °F
Humidity 85%
Rainfall 0.00 in
Snow Depth Not available.
6:05 AM 6:47 PM
Waning Crescent, 16% visible
METAR TJNR 180453Z AUTO 05006KT 10SM SCT044 28/25 A2999 RMK AO2 SLP155 T02780250
Pressure 29.99 in
Visibility 10.0 miles
Clouds Scattered Clouds 4400 ft
Heat Index 90 °F
Dew Point 77 °F
Humidity 85%
Rainfall 0.00 in
Snow Depth Not available.
6:05 AM 6:47 PM
Waning Crescent, 16% visible
METAR TJNR 180453Z AUTO 05006KT 10SM SCT044 28/25 A2999 RMK AO2 SLP155 T02780250

Get Your Daily Forecast Email!

Thanks for signing up!

Be on the lookout for a verification email in your inbox.

You'll start receiving severe weather alerts in your inbox..

×

10-Day Weather Forecast

Almanac

Astronomy

Aug. 18, 2017 Rise Set
Actual Time
Civil Twilight
Nautical Twilight
Astronomical Twilight
Moon
Length of Visible Light
Length of Day
Tomorrow will be .
, % of the Moon is Illuminated

Today's Extremes

State Highs State Lows

Community

WunderPhotos

Category 6

Welcome to Category 6. This is the collective home for Weather Underground's featured writeups by Dr. Jeff Masters (right), Bob Henson (left), Chris Burt, and other regular contributors.

Nearby

Air Quality

  Air Quality AQ Index Pollutant
Not available.

Snow Depth

Station Depth Elevation

Earthquake Activity

City Distance Mag. Time & Date
Minimum magnitude displayed is 2.5.

Coastal Water Temperatures

Place Temperature

Stations

Nearby Weather Stations

Station Location Temp. Windchill Dew Point Humidity Wind Precip. Elev Updated Type
                   

Watches & Warnings

Coastal Hazard Statement
Issued: 9:08 PM AST Aug. 17, 2017 – National Weather Service

... High rip current risk in effect until 6 am AST Friday...

The National Weather Service in San Juan has issued a high rip
current risk, which is in effect until 6 am AST Friday.

* Location... from the San Juan area beaches through the southeast
coast of Puerto Rico and the north and east beaches of St Croix.

* Timing... until 6 am AST Friday morning.

* Impacts... strong currents that can carry away even the best
swimmers.

Precautionary/preparedness actions...

There is a high risk of rip currents.

Swim near a lifeguard. If caught in a rip current, relax and
float. Don't swim against the current. If able, swim in a
direction following the shoreline. If unable to escape, face the
shore and call or wave for help.